sensor_id;sensor_type;location;lat;lon;timestamp;temperature;humidity
52731;DHT22;38624;53.242;6.974;2023-03-14T00:01:22;8.20;99.90
52731;DHT22;38624;53.242;6.974;2023-03-14T00:03:48;8.30;99.90
52731;DHT22;38624;53.242;6.974;2023-03-14T00:06:14;8.40;99.90
52731;DHT22;38624;53.242;6.974;2023-03-14T00:08:41;8.30;99.90
52731;DHT22;38624;53.242;6.974;2023-03-14T00:11:07;8.30;99.90
52731;DHT22;38624;53.242;6.974;2023-03-14T00:13:33;8.30;99.90
52731;DHT22;38624;53.242;6.974;2023-03-14T00:16:10;8.40;99.90
52731;DHT22;38624;53.242;6.974;2023-03-14T00:18:37;8.40;99.90
52731;DHT22;38624;53.242;6.974;2023-03-14T00:21:05;8.60;99.90
52731;DHT22;38624;53.242;6.974;2023-03-14T00:23:33;8.70;99.90
52731;DHT22;38624;53.242;6.974;2023-03-14T00:26:13;8.70;99.90
52731;DHT22;38624;53.242;6.974;2023-03-14T00:28:40;8.70;99.90
52731;DHT22;38624;53.242;6.974;2023-03-14T00:31:07;8.80;99.90
52731;DHT22;38624;53.242;6.974;2023-03-14T00:33:33;9.00;99.90
52731;DHT22;38624;53.242;6.974;2023-03-14T00:36:08;9.00;99.90
52731;DHT22;38624;53.242;6.974;2023-03-14T00:38:34;9.10;99.90
52731;DHT22;38624;53.242;6.974;2023-03-14T00:41:05;9.20;99.90
52731;DHT22;38624;53.242;6.974;2023-03-14T00:43:31;9.20;99.90
52731;DHT22;38624;53.242;6.974;2023-03-14T00:45:57;9.30;99.90
52731;DHT22;38624;53.242;6.974;2023-03-14T00:48:23;9.30;99.90
52731;DHT22;38624;53.242;6.974;2023-03-14T00:50:48;9.40;99.90
52731;DHT22;38624;53.242;6.974;2023-03-14T00:53:14;9.40;99.90
52731;DHT22;38624;53.242;6.974;2023-03-14T00:55:41;9.50;99.90
52731;DHT22;38624;53.242;6.974;2023-03-14T00:58:08;9.40;99.90
52731;DHT22;38624;53.242;6.974;2023-03-14T01:00:34;9.50;99.90
52731;DHT22;38624;53.242;6.974;2023-03-14T01:03:00;9.60;99.90
52731;DHT22;38624;53.242;6.974;2023-03-14T01:05:26;9.70;99.90
52731;DHT22;38624;53.242;6.974;2023-03-14T01:07:52;9.80;99.90
52731;DHT22;38624;53.242;6.974;2023-03-14T01:10:18;9.90;99.90
52731;DHT22;38624;53.242;6.974;2023-03-14T01:12:43;8.90;99.90
52731;DHT22;38624;53.242;6.974;2023-03-14T01:15:09;10.00;99.90
52731;DHT22;38624;53.242;6.974;2023-03-14T01:17:35;10.00;99.90
52731;DHT22;38624;53.242;6.974;2023-03-14T01:20:04;10.00;99.90
52731;DHT22;38624;53.242;6.974;2023-03-14T01:22:30;9.90;99.90
52731;DHT22;38624;53.242;6.974;2023-03-14T01:24:56;9.80;99.90
52731;DHT22;38624;53.242;6.974;2023-03-14T01:27:21;9.60;99.90
52731;DHT22;38624;53.242;6.974;2023-03-14T01:29:47;9.60;99.90
52731;DHT22;38624;53.242;6.974;2023-03-14T01:32:13;9.70;99.90
52731;DHT22;38624;53.242;6.974;2023-03-14T01:34:39;9.70;99.90
52731;DHT22;38624;53.242;6.974;2023-03-14T01:37:04;9.70;99.90
52731;DHT22;38624;53.242;6.974;2023-03-14T01:39:31;9.60;99.90
52731;DHT22;38624;53.242;6.974;2023-03-14T01:41:57;9.60;99.90
52731;DHT22;38624;53.242;6.974;2023-03-14T01:44:22;9.50;99.90
52731;DHT22;38624;53.242;6.974;2023-03-14T01:46:48;9.60;99.90
52731;DHT22;38624;53.242;6.974;2023-03-14T01:49:34;9.60;99.90
52731;DHT22;38624;53.242;6.974;2023-03-14T01:52:12;9.70;99.90
52731;DHT22;38624;53.242;6.974;2023-03-14T01:54:44;9.90;99.90
52731;DHT22;38624;53.242;6.974;2023-03-14T01:57:18;9.90;99.90
52731;DHT22;38624;53.242;6.974;2023-03-14T02:02:22;10.00;99.90
52731;DHT22;38624;53.242;6.974;2023-03-14T02:04:49;10.10;99.90
52731;DHT22;38624;53.242;6.974;2023-03-14T02:10:02;10.20;99.90
52731;DHT22;38624;53.242;6.974;2023-03-14T02:12:29;10.30;99.90
52731;DHT22;38624;53.242;6.974;2023-03-14T02:14:55;10.30;99.90
52731;DHT22;38624;53.242;6.974;2023-03-14T02:17:22;10.30;99.90
52731;DHT22;38624;53.242;6.974;2023-03-14T02:22:42;10.40;99.90
52731;DHT22;38624;53.242;6.974;2023-03-14T02:28:05;10.30;99.90
52731;DHT22;38624;53.242;6.974;2023-03-14T02:30:32;10.20;99.90
52731;DHT22;38624;53.242;6.974;2023-03-14T02:33:03;10.20;99.90
52731;DHT22;38624;53.242;6.974;2023-03-14T02:35:37;10.10;99.90
52731;DHT22;38624;53.242;6.974;2023-03-14T02:40:33;10.10;99.90
52731;DHT22;38624;53.242;6.974;2023-03-14T02:42:58;10.10;99.90
52731;DHT22;38624;53.242;6.974;2023-03-14T02:47:54;10.00;99.90
52731;DHT22;38624;53.242;6.974;2023-03-14T02:50:23;10.00;99.90
52731;DHT22;38624;53.242;6.974;2023-03-14T02:52:50;10.00;99.90
52731;DHT22;38624;53.242;6.974;2023-03-14T02:55:23;10.00;99.90
52731;DHT22;38624;53.242;6.974;2023-03-14T02:57:49;10.00;99.90
52731;DHT22;38624;53.242;6.974;2023-03-14T03:00:16;10.00;99.90
52731;DHT22;38624;53.242;6.974;2023-03-14T03:02:41;9.90;99.90
52731;DHT22;38624;53.242;6.974;2023-03-14T03:05:07;9.90;99.90
52731;DHT22;38624;53.242;6.974;2023-03-14T03:07:33;9.90;99.90
52731;DHT22;38624;53.242;6.974;2023-03-14T03:09:59;9.90;99.90
52731;DHT22;38624;53.242;6.974;2023-03-14T03:12:24;9.90;99.90
52731;DHT22;38624;53.242;6.974;2023-03-14T03:14:50;9.80;99.90
52731;DHT22;38624;53.242;6.974;2023-03-14T03:17:16;9.80;99.90
52731;DHT22;38624;53.242;6.974;2023-03-14T03:19:42;9.90;99.90
52731;DHT22;38624;53.242;6.974;2023-03-14T03:22:08;9.90;99.90
52731;DHT22;38624;53.242;6.974;2023-03-14T03:24:34;9.90;99.90
52731;DHT22;38624;53.242;6.974;2023-03-14T03:27:00;9.90;99.90
52731;DHT22;38624;53.242;6.974;2023-03-14T03:29:25;9.80;99.90
52731;DHT22;38624;53.242;6.974;2023-03-14T03:31:51;9.80;99.90
52731;DHT22;38624;53.242;6.974;2023-03-14T03:34:17;9.80;99.90
52731;DHT22;38624;53.242;6.974;2023-03-14T03:36:42;9.80;99.90
52731;DHT22;38624;53.242;6.974;2023-03-14T03:39:08;9.80;99.90
52731;DHT22;38624;53.242;6.974;2023-03-14T03:41:34;9.70;99.90
52731;DHT22;38624;53.242;6.974;2023-03-14T03:43:59;9.70;99.90
52731;DHT22;38624;53.242;6.974;2023-03-14T03:46:25;9.70;99.90
52731;DHT22;38624;53.242;6.974;2023-03-14T03:48:59;9.60;99.90
52731;DHT22;38624;53.242;6.974;2023-03-14T03:51:25;9.50;99.90
52731;DHT22;38624;53.242;6.974;2023-03-14T03:53:51;9.20;99.90
52731;DHT22;38624;53.242;6.974;2023-03-14T03:56:17;9.10;99.90
52731;DHT22;38624;53.242;6.974;2023-03-14T03:58:42;9.00;99.90
52731;DHT22;38624;53.242;6.974;2023-03-14T04:01:09;8.90;99.90
52731;DHT22;38624;53.242;6.974;2023-03-14T04:03:35;8.60;99.90
52731;DHT22;38624;53.242;6.974;2023-03-14T04:06:05;8.60;99.90
52731;DHT22;38624;53.242;6.974;2023-03-14T04:08:32;8.40;99.90
52731;DHT22;38624;53.242;6.974;2023-03-14T04:10:59;8.30;99.90
52731;DHT22;38624;53.242;6.974;2023-03-14T04:13:25;8.30;99.90
52731;DHT22;38624;53.242;6.974;2023-03-14T04:15:52;8.30;99.90
52731;DHT22;38624;53.242;6.974;2023-03-14T04:18:18;8.20;99.90
52731;DHT22;38624;53.242;6.974;2023-03-14T04:20:44;8.20;99.90
52731;DHT22;38624;53.242;6.974;2023-03-14T04:23:10;8.20;99.90
52731;DHT22;38624;53.242;6.974;2023-03-14T04:25:35;8.20;99.90
52731;DHT22;38624;53.242;6.974;2023-03-14T04:28:01;8.20;99.90
52731;DHT22;38624;53.242;6.974;2023-03-14T04:30:28;8.20;99.90
52731;DHT22;38624;53.242;6.974;2023-03-14T04:32:54;8.20;99.90
52731;DHT22;38624;53.242;6.974;2023-03-14T04:35:19;8.30;99.90
52731;DHT22;38624;53.242;6.974;2023-03-14T04:37:45;8.30;99.90
52731;DHT22;38624;53.242;6.974;2023-03-14T04:40:15;8.30;99.90
52731;DHT22;38624;53.242;6.974;2023-03-14T04:42:41;8.30;99.90
52731;DHT22;38624;53.242;6.974;2023-03-14T04:45:07;8.40;99.90
52731;DHT22;38624;53.242;6.974;2023-03-14T04:47:33;8.40;99.90
52731;DHT22;38624;53.242;6.974;2023-03-14T04:49:59;8.40;99.90
52731;DHT22;38624;53.242;6.974;2023-03-14T04:52:25;8.30;99.90
52731;DHT22;38624;53.242;6.974;2023-03-14T04:54:51;8.40;99.90
52731;DHT22;38624;53.242;6.974;2023-03-14T04:57:17;8.30;99.90
52731;DHT22;38624;53.242;6.974;2023-03-14T04:59:42;8.30;99.90
52731;DHT22;38624;53.242;6.974;2023-03-14T05:02:08;8.30;99.90
52731;DHT22;38624;53.242;6.974;2023-03-14T05:04:34;8.30;99.90
52731;DHT22;38624;53.242;6.974;2023-03-14T05:07:00;8.40;99.90
52731;DHT22;38624;53.242;6.974;2023-03-14T05:09:26;8.40;99.90
52731;DHT22;38624;53.242;6.974;2023-03-14T05:11:52;8.40;99.90
52731;DHT22;38624;53.242;6.974;2023-03-14T05:14:17;8.60;99.90
52731;DHT22;38624;53.242;6.974;2023-03-14T05:16:43;8.40;99.90
52731;DHT22;38624;53.242;6.974;2023-03-14T05:19:10;8.40;99.90
52731;DHT22;38624;53.242;6.974;2023-03-14T05:21:35;8.30;99.90
52731;DHT22;38624;53.242;6.974;2023-03-14T05:24:01;8.30;99.90
52731;DHT22;38624;53.242;6.974;2023-03-14T05:26:27;8.40;99.90
52731;DHT22;38624;53.242;6.974;2023-03-14T05:28:53;8.40;99.90
52731;DHT22;38624;53.242;6.974;2023-03-14T05:31:18;8.50;99.90
52731;DHT22;38624;53.242;6.974;2023-03-14T05:33:44;8.40;99.90
52731;DHT22;38624;53.242;6.974;2023-03-14T05:36:10;8.40;99.90
52731;DHT22;38624;53.242;6.974;2023-03-14T05:38:36;8.40;99.90
52731;DHT22;38624;53.242;6.974;2023-03-14T05:41:01;8.50;99.90
52731;DHT22;38624;53.242;6.974;2023-03-14T05:43:27;8.50;99.90
52731;DHT22;38624;53.242;6.974;2023-03-14T05:45:53;8.50;99.90
52731;DHT22;38624;53.242;6.974;2023-03-14T05:48:18;8.40;99.90
52731;DHT22;38624;53.242;6.974;2023-03-14T05:50:44;8.20;99.90
52731;DHT22;38624;53.242;6.974;2023-03-14T05:53:10;8.20;99.90
52731;DHT22;38624;53.242;6.974;2023-03-14T05:55:36;8.10;99.90
52731;DHT22;38624;53.242;6.974;2023-03-14T05:58:01;8.10;99.90
52731;DHT22;38624;53.242;6.974;2023-03-14T06:00:27;8.10;99.90
52731;DHT22;38624;53.242;6.974;2023-03-14T06:02:53;8.00;99.90
52731;DHT22;38624;53.242;6.974;2023-03-14T06:05:18;8.00;99.90
52731;DHT22;38624;53.242;6.974;2023-03-14T06:07:44;8.00;99.90
52731;DHT22;38624;53.242;6.974;2023-03-14T06:10:10;8.00;99.90
52731;DHT22;38624;53.242;6.974;2023-03-14T06:12:35;8.00;99.90
52731;DHT22;38624;53.242;6.974;2023-03-14T06:15:01;8.00;99.90
52731;DHT22;38624;53.242;6.974;2023-03-14T06:17:27;8.00;99.90
52731;DHT22;38624;53.242;6.974;2023-03-14T06:19:52;8.00;99.90
52731;DHT22;38624;53.242;6.974;2023-03-14T06:22:18;8.00;99.90
52731;DHT22;38624;53.242;6.974;2023-03-14T06:24:45;8.00;99.90
52731;DHT22;38624;53.242;6.974;2023-03-14T06:27:10;8.00;99.90
52731;DHT22;38624;53.242;6.974;2023-03-14T06:29:36;8.00;99.90
52731;DHT22;38624;53.242;6.974;2023-03-14T06:32:02;8.10;99.90
52731;DHT22;38624;53.242;6.974;2023-03-14T06:34:28;8.00;99.90
52731;DHT22;38624;53.242;6.974;2023-03-14T06:36:53;8.00;99.90
52731;DHT22;38624;53.242;6.974;2023-03-14T06:39:19;8.00;99.90
52731;DHT22;38624;53.242;6.974;2023-03-14T06:41:45;8.00;99.90
52731;DHT22;38624;53.242;6.974;2023-03-14T06:44:11;8.00;99.90
52731;DHT22;38624;53.242;6.974;2023-03-14T06:46:36;8.00;99.90
52731;DHT22;38624;53.242;6.974;2023-03-14T06:49:02;8.00;99.90
52731;DHT22;38624;53.242;6.974;2023-03-14T06:51:28;8.00;99.90
52731;DHT22;38624;53.242;6.974;2023-03-14T06:53:54;8.00;99.90
52731;DHT22;38624;53.242;6.974;2023-03-14T06:56:19;8.00;99.90
52731;DHT22;38624;53.242;6.974;2023-03-14T06:58:45;7.80;99.90
52731;DHT22;38624;53.242;6.974;2023-03-14T07:01:25;7.20;99.90
52731;DHT22;38624;53.242;6.974;2023-03-14T07:03:51;7.10;99.90
52731;DHT22;38624;53.242;6.974;2023-03-14T07:06:17;6.90;99.90
52731;DHT22;38624;53.242;6.974;2023-03-14T07:08:43;6.80;99.90
52731;DHT22;38624;53.242;6.974;2023-03-14T07:11:08;6.70;99.90
52731;DHT22;38624;53.242;6.974;2023-03-14T07:13:37;6.50;99.90
52731;DHT22;38624;53.242;6.974;2023-03-14T07:16:03;6.50;99.90
52731;DHT22;38624;53.242;6.974;2023-03-14T07:18:29;6.40;99.90
52731;DHT22;38624;53.242;6.974;2023-03-14T07:20:54;6.40;99.90
52731;DHT22;38624;53.242;6.974;2023-03-14T07:23:20;6.10;99.90
52731;DHT22;38624;53.242;6.974;2023-03-14T07:25:46;5.90;99.90
52731;DHT22;38624;53.242;6.974;2023-03-14T07:28:11;5.50;99.90
52731;DHT22;38624;53.242;6.974;2023-03-14T07:30:37;5.30;99.90
52731;DHT22;38624;53.242;6.974;2023-03-14T07:33:03;5.30;99.90
52731;DHT22;38624;53.242;6.974;2023-03-14T07:35:28;5.20;99.90
52731;DHT22;38624;53.242;6.974;2023-03-14T07:37:54;4.60;99.90
52731;DHT22;38624;53.242;6.974;2023-03-14T07:40:20;4.40;99.90
52731;DHT22;38624;53.242;6.974;2023-03-14T07:42:45;4.20;99.90
52731;DHT22;38624;53.242;6.974;2023-03-14T07:45:11;4.90;99.90
52731;DHT22;38624;53.242;6.974;2023-03-14T07:47:37;4.00;99.90
52731;DHT22;38624;53.242;6.974;2023-03-14T07:50:04;4.10;99.90
52731;DHT22;38624;53.242;6.974;2023-03-14T07:52:30;4.10;99.90
52731;DHT22;38624;53.242;6.974;2023-03-14T07:54:56;4.40;99.90
52731;DHT22;38624;53.242;6.974;2023-03-14T07:57:22;4.10;99.90
52731;DHT22;38624;53.242;6.974;2023-03-14T07:59:47;4.40;99.90
52731;DHT22;38624;53.242;6.974;2023-03-14T08:02:13;4.30;99.90
52731;DHT22;38624;53.242;6.974;2023-03-14T08:04:39;4.20;99.90
52731;DHT22;38624;53.242;6.974;2023-03-14T08:07:05;4.00;99.90
52731;DHT22;38624;53.242;6.974;2023-03-14T08:09:32;4.40;99.90
52731;DHT22;38624;53.242;6.974;2023-03-14T08:11:57;4.50;99.90
52731;DHT22;38624;53.242;6.974;2023-03-14T08:14:23;3.90;99.90
52731;DHT22;38624;53.242;6.974;2023-03-14T08:16:52;3.90;99.90
52731;DHT22;38624;53.242;6.974;2023-03-14T08:19:18;3.90;99.90
52731;DHT22;38624;53.242;6.974;2023-03-14T08:21:43;4.10;99.90
52731;DHT22;38624;53.242;6.974;2023-03-14T08:24:09;3.90;99.90
52731;DHT22;38624;53.242;6.974;2023-03-14T08:26:35;4.00;99.90
52731;DHT22;38624;53.242;6.974;2023-03-14T08:29:00;4.20;99.90
52731;DHT22;38624;53.242;6.974;2023-03-14T08:31:26;4.20;99.90
52731;DHT22;38624;53.242;6.974;2023-03-14T08:33:52;4.40;99.90
52731;DHT22;38624;53.242;6.974;2023-03-14T08:36:19;4.40;99.90
52731;DHT22;38624;53.242;6.974;2023-03-14T08:38:45;4.90;99.90
52731;DHT22;38624;53.242;6.974;2023-03-14T08:41:12;4.70;99.90
52731;DHT22;38624;53.242;6.974;2023-03-14T08:43:37;4.60;99.90
52731;DHT22;38624;53.242;6.974;2023-03-14T08:46:03;4.40;99.90
52731;DHT22;38624;53.242;6.974;2023-03-14T08:48:29;4.40;99.90
52731;DHT22;38624;53.242;6.974;2023-03-14T08:50:57;5.20;99.90
52731;DHT22;38624;53.242;6.974;2023-03-14T08:53:22;5.40;99.90
52731;DHT22;38624;53.242;6.974;2023-03-14T08:55:54;4.80;99.90
52731;DHT22;38624;53.242;6.974;2023-03-14T08:58:20;4.90;99.90
52731;DHT22;38624;53.242;6.974;2023-03-14T09:00:48;5.10;99.90
52731;DHT22;38624;53.242;6.974;2023-03-14T09:03:13;5.20;99.90
52731;DHT22;38624;53.242;6.974;2023-03-14T09:05:40;5.30;99.90
52731;DHT22;38624;53.242;6.974;2023-03-14T09:08:05;5.40;99.90
52731;DHT22;38624;53.242;6.974;2023-03-14T09:10:31;5.50;99.90
52731;DHT22;38624;53.242;6.974;2023-03-14T09:12:57;5.90;99.90
52731;DHT22;38624;53.242;6.974;2023-03-14T09:15:24;5.60;99.90
52731;DHT22;38624;53.242;6.974;2023-03-14T09:17:50;5.20;99.90
52731;DHT22;38624;53.242;6.974;2023-03-14T09:20:16;5.40;99.90
52731;DHT22;38624;53.242;6.974;2023-03-14T09:22:41;5.30;99.90
52731;DHT22;38624;53.242;6.974;2023-03-14T09:25:07;5.40;99.90
52731;DHT22;38624;53.242;6.974;2023-03-14T09:27:34;5.60;99.90
52731;DHT22;38624;53.242;6.974;2023-03-14T09:30:00;5.50;99.90
52731;DHT22;38624;53.242;6.974;2023-03-14T09:32:26;5.50;99.90
52731;DHT22;38624;53.242;6.974;2023-03-14T09:34:51;5.50;99.90
52731;DHT22;38624;53.242;6.974;2023-03-14T09:37:17;5.60;99.90
52731;DHT22;38624;53.242;6.974;2023-03-14T09:39:43;6.20;99.90
52731;DHT22;38624;53.242;6.974;2023-03-14T09:42:14;5.70;99.90
52731;DHT22;38624;53.242;6.974;2023-03-14T09:44:57;5.80;99.90
52731;DHT22;38624;53.242;6.974;2023-03-14T09:47:25;4.90;99.90
52731;DHT22;38624;53.242;6.974;2023-03-14T09:49:51;6.10;99.90
52731;DHT22;38624;53.242;6.974;2023-03-14T09:52:35;6.10;99.90
52731;DHT22;38624;53.242;6.974;2023-03-14T09:55:30;6.10;99.90
52731;DHT22;38624;53.242;6.974;2023-03-14T09:58:00;5.60;99.90
52731;DHT22;38624;53.242;6.974;2023-03-14T10:00:29;5.30;99.90
52731;DHT22;38624;53.242;6.974;2023-03-14T10:03:21;5.20;99.90
52731;DHT22;38624;53.242;6.974;2023-03-14T10:05:44;5.20;99.90
52731;DHT22;38624;53.242;6.974;2023-03-14T10:08:11;5.10;99.90
52731;DHT22;38624;53.242;6.974;2023-03-14T10:10:37;5.20;99.90
52731;DHT22;38624;53.242;6.974;2023-03-14T10:13:16;5.60;99.90
52731;DHT22;38624;53.242;6.974;2023-03-14T10:15:50;5.50;99.90
52731;DHT22;38624;53.242;6.974;2023-03-14T10:18:16;5.70;99.90
52731;DHT22;38624;53.242;6.974;2023-03-14T10:20:47;5.80;99.90
52731;DHT22;38624;53.242;6.974;2023-03-14T10:25:45;5.90;99.90
52731;DHT22;38624;53.242;6.974;2023-03-14T10:28:27;5.80;99.90
52731;DHT22;38624;53.242;6.974;2023-03-14T10:30:54;6.20;99.90
52731;DHT22;38624;53.242;6.974;2023-03-14T10:33:35;6.10;99.90
52731;DHT22;38624;53.242;6.974;2023-03-14T10:38:32;6.50;99.90
52731;DHT22;38624;53.242;6.974;2023-03-14T10:40:58;6.60;99.90
52731;DHT22;38624;53.242;6.974;2023-03-14T10:43:33;6.80;99.90
52731;DHT22;38624;53.242;6.974;2023-03-14T10:46:05;7.00;99.90
52731;DHT22;38624;53.242;6.974;2023-03-14T10:48:34;7.00;99.90
52731;DHT22;38624;53.242;6.974;2023-03-14T10:51:07;7.40;99.90
52731;DHT22;38624;53.242;6.974;2023-03-14T10:53:46;7.40;99.90
52731;DHT22;38624;53.242;6.974;2023-03-14T10:56:19;7.10;99.90
52731;DHT22;38624;53.242;6.974;2023-03-14T10:58:47;7.40;99.90
52731;DHT22;38624;53.242;6.974;2023-03-14T11:04:21;7.60;99.90
52731;DHT22;38624;53.242;6.974;2023-03-14T11:20:59;7.20;99.90
52731;DHT22;38624;53.242;6.974;2023-03-14T11:23:37;7.00;99.90
52731;DHT22;38624;53.242;6.974;2023-03-14T11:29:45;9.20;99.90
52731;DHT22;38624;53.242;6.974;2023-03-14T11:34:53;9.50;95.30
52731;DHT22;38624;53.242;6.974;2023-03-14T11:37:28;9.00;96.00
52731;DHT22;38624;53.242;6.974;2023-03-14T11:42:46;9.30;95.70
52731;DHT22;38624;53.242;6.974;2023-03-14T11:45:25;8.50;98.20
52731;DHT22;38624;53.242;6.974;2023-03-14T11:50:33;7.40;99.90
52731;DHT22;38624;53.242;6.974;2023-03-14T11:53:03;7.10;99.90
52731;DHT22;38624;53.242;6.974;2023-03-14T11:55:35;7.00;99.90
52731;DHT22;38624;53.242;6.974;2023-03-14T11:58:17;7.10;99.90
52731;DHT22;38624;53.242;6.974;2023-03-14T12:00:46;7.20;99.90
52731;DHT22;38624;53.242;6.974;2023-03-14T12:08:43;11.20;89.10
52731;DHT22;38624;53.242;6.974;2023-03-14T12:13:54;10.50;90.20
52731;DHT22;38624;53.242;6.974;2023-03-14T12:18:50;12.20;83.40
52731;DHT22;38624;53.242;6.974;2023-03-14T12:21:16;12.40;88.70
52731;DHT22;38624;53.242;6.974;2023-03-14T12:26:20;10.90;90.00
52731;DHT22;38624;53.242;6.974;2023-03-14T12:34:27;9.10;87.10
52731;DHT22;38624;53.242;6.974;2023-03-14T12:39:56;8.70;92.70
52731;DHT22;38624;53.242;6.974;2023-03-14T12:45:15;8.20;96.10
52731;DHT22;38624;53.242;6.974;2023-03-14T12:47:54;7.90;97.30
52731;DHT22;38624;53.242;6.974;2023-03-14T12:50:32;7.60;99.00
52731;DHT22;38624;53.242;6.974;2023-03-14T12:58:59;8.80;99.20
52731;DHT22;38624;53.242;6.974;2023-03-14T13:01:25;10.10;99.90
52731;DHT22;38624;53.242;6.974;2023-03-14T13:03:55;11.20;96.80
52731;DHT22;38624;53.242;6.974;2023-03-14T13:11:53;13.60;85.40
52731;DHT22;38624;53.242;6.974;2023-03-14T13:14:19;12.40;82.20
52731;DHT22;38624;53.242;6.974;2023-03-14T13:16:46;12.70;83.00
52731;DHT22;38624;53.242;6.974;2023-03-14T13:19:27;11.50;78.10
52731;DHT22;38624;53.242;6.974;2023-03-14T13:22:02;11.60;78.10
52731;DHT22;38624;53.242;6.974;2023-03-14T13:24:28;11.60;78.30
52731;DHT22;38624;53.242;6.974;2023-03-14T13:26:56;11.30;76.70
52731;DHT22;38624;53.242;6.974;2023-03-14T13:29:23;11.00;79.40
52731;DHT22;38624;53.242;6.974;2023-03-14T13:31:58;11.20;80.40
52731;DHT22;38624;53.242;6.974;2023-03-14T13:34:32;11.00;82.50
52731;DHT22;38624;53.242;6.974;2023-03-14T13:36:59;10.80;81.70
52731;DHT22;38624;53.242;6.974;2023-03-14T13:39:26;10.60;80.80
52731;DHT22;38624;53.242;6.974;2023-03-14T13:42:03;10.40;82.60
52731;DHT22;38624;53.242;6.974;2023-03-14T13:44:34;10.60;82.80
52731;DHT22;38624;53.242;6.974;2023-03-14T13:47:03;10.80;82.70
52731;DHT22;38624;53.242;6.974;2023-03-14T13:49:31;10.80;79.50
52731;DHT22;38624;53.242;6.974;2023-03-14T13:52:01;11.00;80.20
52731;DHT22;38624;53.242;6.974;2023-03-14T13:54:27;10.60;78.00
52731;DHT22;38624;53.242;6.974;2023-03-14T13:57:05;10.70;79.40
52731;DHT22;38624;53.242;6.974;2023-03-14T13:59:34;10.60;80.00
52731;DHT22;38624;53.242;6.974;2023-03-14T14:02:04;9.60;74.80
52731;DHT22;38624;53.242;6.974;2023-03-14T14:04:37;9.60;76.30
52731;DHT22;38624;53.242;6.974;2023-03-14T14:07:08;9.80;79.00
52731;DHT22;38624;53.242;6.974;2023-03-14T14:09:40;10.30;75.80
52731;DHT22;38624;53.242;6.974;2023-03-14T14:12:17;11.10;76.80
52731;DHT22;38624;53.242;6.974;2023-03-14T14:14:50;11.10;74.30
52731;DHT22;38624;53.242;6.974;2023-03-14T14:20:02;10.70;75.30
52731;DHT22;38624;53.242;6.974;2023-03-14T14:22:30;10.80;78.60
52731;DHT22;38624;53.242;6.974;2023-03-14T14:24:56;10.10;77.60
52731;DHT22;38624;53.242;6.974;2023-03-14T14:27:37;9.40;80.10
52731;DHT22;38624;53.242;6.974;2023-03-14T14:30:06;8.90;83.20
52731;DHT22;38624;53.242;6.974;2023-03-14T14:32:37;8.50;83.20
52731;DHT22;38624;53.242;6.974;2023-03-14T14:35:04;8.60;87.40
52731;DHT22;38624;53.242;6.974;2023-03-14T14:37:34;8.00;86.40
52731;DHT22;38624;53.242;6.974;2023-03-14T14:40:16;8.50;88.60
52731;DHT22;38624;53.242;6.974;2023-03-14T14:42:42;8.90;87.20
52731;DHT22;38624;53.242;6.974;2023-03-14T14:45:16;9.00;84.50
52731;DHT22;38624;53.242;6.974;2023-03-14T14:48:03;8.70;85.60
52731;DHT22;38624;53.242;6.974;2023-03-14T14:50:36;8.80;83.30
52731;DHT22;38624;53.242;6.974;2023-03-14T14:53:19;8.90;84.90
52731;DHT22;38624;53.242;6.974;2023-03-14T14:55:48;9.00;84.00
52731;DHT22;38624;53.242;6.974;2023-03-14T14:58:28;9.10;85.60
52731;DHT22;38624;53.242;6.974;2023-03-14T15:01:25;8.80;81.60
52731;DHT22;38624;53.242;6.974;2023-03-14T15:03:53;8.30;85.50
52731;DHT22;38624;53.242;6.974;2023-03-14T15:06:20;8.60;89.20
52731;DHT22;38624;53.242;6.974;2023-03-14T15:08:47;7.80;90.70
52731;DHT22;38624;53.242;6.974;2023-03-14T15:11:19;7.80;91.50
52731;DHT22;38624;53.242;6.974;2023-03-14T15:13:45;8.60;94.00
52731;DHT22;38624;53.242;6.974;2023-03-14T15:16:12;9.20;92.00
52731;DHT22;38624;53.242;6.974;2023-03-14T15:18:39;9.40;92.20
52731;DHT22;38624;53.242;6.974;2023-03-14T15:21:05;10.30;92.20
52731;DHT22;38624;53.242;6.974;2023-03-14T15:23:31;10.20;90.90
52731;DHT22;38624;53.242;6.974;2023-03-14T15:25:57;10.50;91.10
52731;DHT22;38624;53.242;6.974;2023-03-14T15:28:25;10.80;90.60
52731;DHT22;38624;53.242;6.974;2023-03-14T15:30:54;11.00;90.40
52731;DHT22;38624;53.242;6.974;2023-03-14T15:33:20;11.00;89.70
52731;DHT22;38624;53.242;6.974;2023-03-14T15:35:46;10.80;80.90
52731;DHT22;38624;53.242;6.974;2023-03-14T15:38:15;10.90;81.60
52731;DHT22;38624;53.242;6.974;2023-03-14T15:40:42;10.30;80.90
52731;DHT22;38624;53.242;6.974;2023-03-14T15:43:08;9.70;80.20
52731;DHT22;38624;53.242;6.974;2023-03-14T15:45:34;9.00;80.00
52731;DHT22;38624;53.242;6.974;2023-03-14T15:48:00;9.30;81.10
52731;DHT22;38624;53.242;6.974;2023-03-14T15:50:26;9.90;81.10
52731;DHT22;38624;53.242;6.974;2023-03-14T15:52:52;10.40;81.80
52731;DHT22;38624;53.242;6.974;2023-03-14T15:55:18;10.80;81.20
52731;DHT22;38624;53.242;6.974;2023-03-14T15:57:44;11.30;82.10
52731;DHT22;38624;53.242;6.974;2023-03-14T16:00:14;11.30;81.80
52731;DHT22;38624;53.242;6.974;2023-03-14T16:02:41;10.80;81.10
52731;DHT22;38624;53.242;6.974;2023-03-14T16:05:09;10.20;80.30
52731;DHT22;38624;53.242;6.974;2023-03-14T16:07:35;9.30;80.00
52731;DHT22;38624;53.242;6.974;2023-03-14T16:10:01;9.20;81.00
52731;DHT22;38624;53.242;6.974;2023-03-14T16:12:27;9.00;83.30
52731;DHT22;38624;53.242;6.974;2023-03-14T16:14:52;9.20;83.30
52731;DHT22;38624;53.242;6.974;2023-03-14T16:17:18;8.60;79.20
52731;DHT22;38624;53.242;6.974;2023-03-14T16:19:44;8.40;80.80
52731;DHT22;38624;53.242;6.974;2023-03-14T16:22:10;8.10;80.90
52731;DHT22;38624;53.242;6.974;2023-03-14T16:24:35;8.00;82.60
52731;DHT22;38624;53.242;6.974;2023-03-14T16:27:01;7.80;84.00
52731;DHT22;38624;53.242;6.974;2023-03-14T16:29:27;7.20;86.60
52731;DHT22;38624;53.242;6.974;2023-03-14T16:31:54;6.80;90.60
52731;DHT22;38624;53.242;6.974;2023-03-14T16:34:20;6.30;91.60
52731;DHT22;38624;53.242;6.974;2023-03-14T16:36:45;6.50;92.60
52731;DHT22;38624;53.242;6.974;2023-03-14T16:39:12;5.80;93.00
52731;DHT22;38624;53.242;6.974;2023-03-14T16:41:38;5.60;93.10
52731;DHT22;38624;53.242;6.974;2023-03-14T16:44:04;5.50;93.90
52731;DHT22;38624;53.242;6.974;2023-03-14T16:46:29;6.10;94.90
52731;DHT22;38624;53.242;6.974;2023-03-14T16:48:55;5.90;99.40
52731;DHT22;38624;53.242;6.974;2023-03-14T16:51:22;4.80;99.90
52731;DHT22;38624;53.242;6.974;2023-03-14T16:53:48;5.20;99.90
52731;DHT22;38624;53.242;6.974;2023-03-14T16:56:14;4.90;99.90
52731;DHT22;38624;53.242;6.974;2023-03-14T16:58:40;4.90;99.90
52731;DHT22;38624;53.242;6.974;2023-03-14T17:01:07;5.10;99.90
52731;DHT22;38624;53.242;6.974;2023-03-14T17:03:44;5.50;99.90
52731;DHT22;38624;53.242;6.974;2023-03-14T17:06:11;5.10;99.90
52731;DHT22;38624;53.242;6.974;2023-03-14T17:08:37;5.10;99.90
52731;DHT22;38624;53.242;6.974;2023-03-14T17:11:03;5.00;99.90
52731;DHT22;38624;53.242;6.974;2023-03-14T17:13:29;4.90;99.90
52731;DHT22;38624;53.242;6.974;2023-03-14T17:15:56;4.90;99.90